<?xml version="1.0" encoding="UTF-8" standalone="no" ?>
<gpx xmlns="http://www.topografix.com/GPX/1/1" xmlns:xsi="http://www.w3.org/2001/XMLSchema-instance" xsi:schemaLocation="http://www.topografix.com/GPX/1/1 http://www.topografix.com/GPX/1/1/gpx.xsd" version="1.1" creator="VisuGPX - https://www.visugpx.com">
  <metadata>
    <name>Dunes - Circuit du Bruhlois fractionné</name>
  </metadata>
  <trk>
    <name><![CDATA[Dunes - Circuit du Bruhlois fractionné]]></name>
    <extensions>
      <line xmlns="http://www.topografix.com/GPX/gpx_style/0/2">
        <color>0000FF</color>
        <width>4</width>
      </line>
    </extensions>
    <trkseg>
      <trkpt lat="44.08621" lon="0.77122">
        <ele>121.6</ele>
        <time>2022-01-04T13:54:26+01:00</time>
      </trkpt>
      <trkpt lat="44.08621" lon="0.77101">
        <ele>122.4</ele>
        <time>2022-01-04T13:54:46+01:00</time>
      </trkpt>
      <trkpt lat="44.08619" lon="0.77081">
        <ele>123</ele>
        <time>2022-01-04T13:54:56+01:00</time>
      </trkpt>
      <trkpt lat="44.08618" lon="0.77062">
        <ele>123</ele>
        <time>2022-01-04T13:55:05+01:00</time>
      </trkpt>
      <trkpt lat="44.08618" lon="0.77043">
        <ele>122.2</ele>
        <time>2022-01-04T13:55:16+01:00</time>
      </trkpt>
      <trkpt lat="44.08628" lon="0.7703">
        <ele>121.7</ele>
        <time>2022-01-04T13:55:51+01:00</time>
      </trkpt>
      <trkpt lat="44.08639" lon="0.77017">
        <ele>120.2</ele>
        <time>2022-01-04T13:56:01+01:00</time>
      </trkpt>
      <trkpt lat="44.0865" lon="0.77005">
        <ele>119.6</ele>
        <time>2022-01-04T13:56:10+01:00</time>
      </trkpt>
      <trkpt lat="44.08661" lon="0.76994">
        <ele>119.5</ele>
        <time>2022-01-04T13:56:19+01:00</time>
      </trkpt>
      <trkpt lat="44.08673" lon="0.76982">
        <ele>119.1</ele>
        <time>2022-01-04T13:56:28+01:00</time>
      </trkpt>
      <trkpt lat="44.08685" lon="0.76971">
        <ele>119.6</ele>
        <time>2022-01-04T13:56:37+01:00</time>
      </trkpt>
      <trkpt lat="44.08696" lon="0.7696">
        <ele>119.5</ele>
        <time>2022-01-04T13:56:47+01:00</time>
      </trkpt>
      <trkpt lat="44.08708" lon="0.76948">
        <ele>118.6</ele>
        <time>2022-01-04T13:56:56+01:00</time>
      </trkpt>
      <trkpt lat="44.08721" lon="0.76941">
        <ele>119</ele>
        <time>2022-01-04T13:57:05+01:00</time>
      </trkpt>
      <trkpt lat="44.08734" lon="0.76933">
        <ele>118.2</ele>
        <time>2022-01-04T13:57:16+01:00</time>
      </trkpt>
      <trkpt lat="44.08748" lon="0.76924">
        <ele>117.4</ele>
        <time>2022-01-04T13:57:26+01:00</time>
      </trkpt>
      <trkpt lat="44.08761" lon="0.7692">
        <ele>117.9</ele>
        <time>2022-01-04T13:57:35+01:00</time>
      </trkpt>
      <trkpt lat="44.08774" lon="0.76915">
        <ele>118.1</ele>
        <time>2022-01-04T13:57:45+01:00</time>
      </trkpt>
      <trkpt lat="44.08788" lon="0.76908">
        <ele>118.8</ele>
        <time>2022-01-04T14:00:20+01:00</time>
      </trkpt>
      <trkpt lat="44.08801" lon="0.769">
        <ele>119.7</ele>
        <time>2022-01-04T14:00:28+01:00</time>
      </trkpt>
      <trkpt lat="44.08814" lon="0.76892">
        <ele>120.5</ele>
        <time>2022-01-04T14:00:38+01:00</time>
      </trkpt>
      <trkpt lat="44.08826" lon="0.76883">
        <ele>121</ele>
        <time>2022-01-04T14:00:47+01:00</time>
      </trkpt>
      <trkpt lat="44.08837" lon="0.76871">
        <ele>121.3</ele>
        <time>2022-01-04T14:00:57+01:00</time>
      </trkpt>
      <trkpt lat="44.08848" lon="0.76858">
        <ele>120.4</ele>
        <time>2022-01-04T14:01:09+01:00</time>
      </trkpt>
      <trkpt lat="44.08856" lon="0.76874">
        <ele>122.3</ele>
        <time>2022-01-04T14:01:40+01:00</time>
      </trkpt>
      <trkpt lat="44.08859" lon="0.76894">
        <ele>123.3</ele>
        <time>2022-01-04T14:01:51+01:00</time>
      </trkpt>
      <trkpt lat="44.08863" lon="0.76912">
        <ele>124.8</ele>
        <time>2022-01-04T14:02:01+01:00</time>
      </trkpt>
      <trkpt lat="44.08866" lon="0.76931">
        <ele>125.6</ele>
        <time>2022-01-04T14:02:12+01:00</time>
      </trkpt>
      <trkpt lat="44.0887" lon="0.7695">
        <ele>126</ele>
        <time>2022-01-04T14:02:24+01:00</time>
      </trkpt>
      <trkpt lat="44.08879" lon="0.76964">
        <ele>126</ele>
        <time>2022-01-04T14:02:36+01:00</time>
      </trkpt>
      <trkpt lat="44.08894" lon="0.76965">
        <ele>126</ele>
        <time>2022-01-04T14:02:53+01:00</time>
      </trkpt>
      <trkpt lat="44.08908" lon="0.76962">
        <ele>126.3</ele>
        <time>2022-01-04T14:03:04+01:00</time>
      </trkpt>
      <trkpt lat="44.08921" lon="0.76959">
        <ele>126.5</ele>
        <time>2022-01-04T14:03:16+01:00</time>
      </trkpt>
      <trkpt lat="44.08935" lon="0.76956">
        <ele>126.6</ele>
        <time>2022-01-04T14:03:35+01:00</time>
      </trkpt>
      <trkpt lat="44.08948" lon="0.76957">
        <ele>126.5</ele>
        <time>2022-01-04T14:03:45+01:00</time>
      </trkpt>
      <trkpt lat="44.08963" lon="0.76954">
        <ele>126.6</ele>
        <time>2022-01-04T14:03:54+01:00</time>
      </trkpt>
      <trkpt lat="44.08977" lon="0.76953">
        <ele>126.5</ele>
        <time>2022-01-04T14:04:04+01:00</time>
      </trkpt>
      <trkpt lat="44.08991" lon="0.76952">
        <ele>126.1</ele>
        <time>2022-01-04T14:04:15+01:00</time>
      </trkpt>
      <trkpt lat="44.09005" lon="0.76949">
        <ele>125.7</ele>
        <time>2022-01-04T14:04:24+01:00</time>
      </trkpt>
      <trkpt lat="44.09018" lon="0.76945">
        <ele>125.3</ele>
        <time>2022-01-04T14:04:33+01:00</time>
      </trkpt>
      <trkpt lat="44.09032" lon="0.76943">
        <ele>125</ele>
        <time>2022-01-04T14:04:42+01:00</time>
      </trkpt>
      <trkpt lat="44.09045" lon="0.76937">
        <ele>125.1</ele>
        <time>2022-01-04T14:04:52+01:00</time>
      </trkpt>
      <trkpt lat="44.09059" lon="0.76933">
        <ele>124.9</ele>
        <time>2022-01-04T14:05:03+01:00</time>
      </trkpt>
      <trkpt lat="44.09072" lon="0.76929">
        <ele>124.4</ele>
        <time>2022-01-04T14:05:14+01:00</time>
      </trkpt>
      <trkpt lat="44.09087" lon="0.76927">
        <ele>124</ele>
        <time>2022-01-04T14:05:33+01:00</time>
      </trkpt>
      <trkpt lat="44.09101" lon="0.76926">
        <ele>124</ele>
        <time>2022-01-04T14:05:43+01:00</time>
      </trkpt>
      <trkpt lat="44.09115" lon="0.76927">
        <ele>123.9</ele>
        <time>2022-01-04T14:06:03+01:00</time>
      </trkpt>
      <trkpt lat="44.09129" lon="0.76923">
        <ele>123.4</ele>
        <time>2022-01-04T14:06:13+01:00</time>
      </trkpt>
      <trkpt lat="44.09143" lon="0.7692">
        <ele>123</ele>
        <time>2022-01-04T14:06:24+01:00</time>
      </trkpt>
      <trkpt lat="44.09157" lon="0.76919">
        <ele>123</ele>
        <time>2022-01-04T14:06:34+01:00</time>
      </trkpt>
      <trkpt lat="44.09171" lon="0.76915">
        <ele>122.8</ele>
        <time>2022-01-04T14:06:46+01:00</time>
      </trkpt>
      <trkpt lat="44.09185" lon="0.76912">
        <ele>122.2</ele>
        <time>2022-01-04T14:06:56+01:00</time>
      </trkpt>
      <trkpt lat="44.09199" lon="0.7691">
        <ele>121.8</ele>
        <time>2022-01-04T14:07:06+01:00</time>
      </trkpt>
      <trkpt lat="44.09213" lon="0.76908">
        <ele>121.7</ele>
        <time>2022-01-04T14:07:16+01:00</time>
      </trkpt>
      <trkpt lat="44.09226" lon="0.76904">
        <ele>121.5</ele>
        <time>2022-01-04T14:07:26+01:00</time>
      </trkpt>
      <trkpt lat="44.0924" lon="0.76904">
        <ele>121.5</ele>
        <time>2022-01-04T14:07:38+01:00</time>
      </trkpt>
      <trkpt lat="44.09255" lon="0.76901">
        <ele>121.4</ele>
        <time>2022-01-04T14:07:47+01:00</time>
      </trkpt>
      <trkpt lat="44.09269" lon="0.76899">
        <ele>121.3</ele>
        <time>2022-01-04T14:07:55+01:00</time>
      </trkpt>
      <trkpt lat="44.09284" lon="0.76898">
        <ele>121.3</ele>
        <time>2022-01-04T14:08:05+01:00</time>
      </trkpt>
      <trkpt lat="44.09298" lon="0.76898">
        <ele>121.1</ele>
        <time>2022-01-04T14:08:15+01:00</time>
      </trkpt>
      <trkpt lat="44.09312" lon="0.76894">
        <ele>121</ele>
        <time>2022-01-04T14:08:42+01:00</time>
      </trkpt>
      <trkpt lat="44.09327" lon="0.76894">
        <ele>121</ele>
        <time>2022-01-04T14:08:52+01:00</time>
      </trkpt>
      <trkpt lat="44.09341" lon="0.76892">
        <ele>121</ele>
        <time>2022-01-04T14:09:01+01:00</time>
      </trkpt>
      <trkpt lat="44.09355" lon="0.76895">
        <ele>121</ele>
        <time>2022-01-04T14:09:11+01:00</time>
      </trkpt>
      <trkpt lat="44.09369" lon="0.76896">
        <ele>120.9</ele>
        <time>2022-01-04T14:09:21+01:00</time>
      </trkpt>
      <trkpt lat="44.09383" lon="0.76896">
        <ele>120.8</ele>
        <time>2022-01-04T14:09:31+01:00</time>
      </trkpt>
      <trkpt lat="44.09397" lon="0.76896">
        <ele>120.5</ele>
        <time>2022-01-04T14:09:42+01:00</time>
      </trkpt>
      <trkpt lat="44.09383" lon="0.76899">
        <ele>120.7</ele>
        <time>2022-01-04T14:10:51+01:00</time>
      </trkpt>
      <trkpt lat="44.09368" lon="0.76899">
        <ele>120.9</ele>
        <time>2022-01-04T14:11:01+01:00</time>
      </trkpt>
      <trkpt lat="44.09363" lon="0.7688">
        <ele>121</ele>
        <time>2022-01-04T14:11:13+01:00</time>
      </trkpt>
      <trkpt lat="44.09361" lon="0.7686">
        <ele>121</ele>
        <time>2022-01-04T14:11:23+01:00</time>
      </trkpt>
      <trkpt lat="44.09372" lon="0.7685">
        <ele>121</ele>
        <time>2022-01-04T14:11:33+01:00</time>
      </trkpt>
      <trkpt lat="44.09385" lon="0.76844">
        <ele>121</ele>
        <time>2022-01-04T14:11:43+01:00</time>
      </trkpt>
      <trkpt lat="44.09399" lon="0.76841">
        <ele>121</ele>
        <time>2022-01-04T14:11:53+01:00</time>
      </trkpt>
      <trkpt lat="44.09413" lon="0.7684">
        <ele>121</ele>
        <time>2022-01-04T14:12:02+01:00</time>
      </trkpt>
      <trkpt lat="44.09426" lon="0.76835">
        <ele>120.7</ele>
        <time>2022-01-04T14:12:14+01:00</time>
      </trkpt>
      <trkpt lat="44.0944" lon="0.76834">
        <ele>120.1</ele>
        <time>2022-01-04T14:12:23+01:00</time>
      </trkpt>
      <trkpt lat="44.09455" lon="0.76834">
        <ele>120</ele>
        <time>2022-01-04T14:12:33+01:00</time>
      </trkpt>
      <trkpt lat="44.09468" lon="0.76832">
        <ele>120</ele>
        <time>2022-01-04T14:12:41+01:00</time>
      </trkpt>
      <trkpt lat="44.09482" lon="0.76831">
        <ele>120</ele>
        <time>2022-01-04T14:12:50+01:00</time>
      </trkpt>
      <trkpt lat="44.09496" lon="0.76831">
        <ele>119.9</ele>
        <time>2022-01-04T14:13:00+01:00</time>
      </trkpt>
      <trkpt lat="44.09511" lon="0.76828">
        <ele>119.8</ele>
        <time>2022-01-04T14:13:09+01:00</time>
      </trkpt>
      <trkpt lat="44.09525" lon="0.76829">
        <ele>119.8</ele>
        <time>2022-01-04T14:13:19+01:00</time>
      </trkpt>
      <trkpt lat="44.09539" lon="0.76829">
        <ele>119.9</ele>
        <time>2022-01-04T14:13:28+01:00</time>
      </trkpt>
      <trkpt lat="44.09554" lon="0.76829">
        <ele>120</ele>
        <time>2022-01-04T14:13:38+01:00</time>
      </trkpt>
      <trkpt lat="44.09568" lon="0.76832">
        <ele>120.5</ele>
        <time>2022-01-04T14:13:48+01:00</time>
      </trkpt>
      <trkpt lat="44.09582" lon="0.76836">
        <ele>120.8</ele>
        <time>2022-01-04T14:14:00+01:00</time>
      </trkpt>
      <trkpt lat="44.09595" lon="0.76831">
        <ele>121</ele>
        <time>2022-01-04T14:15:00+01:00</time>
      </trkpt>
      <trkpt lat="44.09604" lon="0.76816">
        <ele>121</ele>
        <time>2022-01-04T14:15:11+01:00</time>
      </trkpt>
      <trkpt lat="44.09614" lon="0.768">
        <ele>121</ele>
        <time>2022-01-04T14:15:21+01:00</time>
      </trkpt>
      <trkpt lat="44.09621" lon="0.76784">
        <ele>121</ele>
        <time>2022-01-04T14:15:30+01:00</time>
      </trkpt>
      <trkpt lat="44.0963" lon="0.76769">
        <ele>120.9</ele>
        <time>2022-01-04T14:15:39+01:00</time>
      </trkpt>
      <trkpt lat="44.09638" lon="0.76753">
        <ele>121</ele>
        <time>2022-01-04T14:15:49+01:00</time>
      </trkpt>
      <trkpt lat="44.09647" lon="0.76738">
        <ele>120.7</ele>
        <time>2022-01-04T14:15:59+01:00</time>
      </trkpt>
      <trkpt lat="44.09655" lon="0.76721">
        <ele>120.5</ele>
        <time>2022-01-04T14:16:09+01:00</time>
      </trkpt>
      <trkpt lat="44.09662" lon="0.76705">
        <ele>120.2</ele>
        <time>2022-01-04T14:16:18+01:00</time>
      </trkpt>
      <trkpt lat="44.0967" lon="0.76688">
        <ele>119.9</ele>
        <time>2022-01-04T14:16:28+01:00</time>
      </trkpt>
      <trkpt lat="44.09678" lon="0.76672">
        <ele>119.6</ele>
        <time>2022-01-04T14:16:39+01:00</time>
      </trkpt>
      <trkpt lat="44.09686" lon="0.76655">
        <ele>119.5</ele>
        <time>2022-01-04T14:16:49+01:00</time>
      </trkpt>
      <trkpt lat="44.09692" lon="0.76637">
        <ele>119.7</ele>
        <time>2022-01-04T14:16:59+01:00</time>
      </trkpt>
      <trkpt lat="44.09698" lon="0.76617">
        <ele>119.3</ele>
        <time>2022-01-04T14:17:08+01:00</time>
      </trkpt>
      <trkpt lat="44.09705" lon="0.766">
        <ele>119.4</ele>
        <time>2022-01-04T14:17:18+01:00</time>
      </trkpt>
      <trkpt lat="44.09713" lon="0.76584">
        <ele>119.7</ele>
        <time>2022-01-04T14:17:28+01:00</time>
      </trkpt>
      <trkpt lat="44.0972" lon="0.76567">
        <ele>119.9</ele>
        <time>2022-01-04T14:17:37+01:00</time>
      </trkpt>
      <trkpt lat="44.09725" lon="0.76549">
        <ele>120</ele>
        <time>2022-01-04T14:17:47+01:00</time>
      </trkpt>
      <trkpt lat="44.09732" lon="0.76532">
        <ele>120.3</ele>
        <time>2022-01-04T14:17:59+01:00</time>
      </trkpt>
      <trkpt lat="44.09739" lon="0.76516">
        <ele>120.6</ele>
        <time>2022-01-04T14:18:10+01:00</time>
      </trkpt>
      <trkpt lat="44.09744" lon="0.76498">
        <ele>120.8</ele>
        <time>2022-01-04T14:18:19+01:00</time>
      </trkpt>
      <trkpt lat="44.09752" lon="0.76481">
        <ele>121</ele>
        <time>2022-01-04T14:18:28+01:00</time>
      </trkpt>
      <trkpt lat="44.09759" lon="0.76464">
        <ele>121</ele>
        <time>2022-01-04T14:18:38+01:00</time>
      </trkpt>
      <trkpt lat="44.09767" lon="0.76448">
        <ele>121</ele>
        <time>2022-01-04T14:18:49+01:00</time>
      </trkpt>
      <trkpt lat="44.09772" lon="0.7643">
        <ele>121.1</ele>
        <time>2022-01-04T14:18:58+01:00</time>
      </trkpt>
      <trkpt lat="44.09779" lon="0.76413">
        <ele>121.1</ele>
        <time>2022-01-04T14:19:07+01:00</time>
      </trkpt>
      <trkpt lat="44.09786" lon="0.76395">
        <ele>121.6</ele>
        <time>2022-01-04T14:19:17+01:00</time>
      </trkpt>
      <trkpt lat="44.09793" lon="0.76377">
        <ele>121.5</ele>
        <time>2022-01-04T14:19:26+01:00</time>
      </trkpt>
      <trkpt lat="44.09801" lon="0.76362">
        <ele>121.2</ele>
        <time>2022-01-04T14:19:55+01:00</time>
      </trkpt>
      <trkpt lat="44.09807" lon="0.76344">
        <ele>121</ele>
        <time>2022-01-04T14:20:20+01:00</time>
      </trkpt>
      <trkpt lat="44.09815" lon="0.76329">
        <ele>121</ele>
        <time>2022-01-04T14:20:33+01:00</time>
      </trkpt>
      <trkpt lat="44.09823" lon="0.76314">
        <ele>121</ele>
        <time>2022-01-04T14:20:45+01:00</time>
      </trkpt>
      <trkpt lat="44.09834" lon="0.763">
        <ele>120.8</ele>
        <time>2022-01-04T14:20:55+01:00</time>
      </trkpt>
      <trkpt lat="44.09844" lon="0.76285">
        <ele>120.5</ele>
        <time>2022-01-04T14:21:05+01:00</time>
      </trkpt>
      <trkpt lat="44.09853" lon="0.76271">
        <ele>120.4</ele>
        <time>2022-01-04T14:21:15+01:00</time>
      </trkpt>
      <trkpt lat="44.09865" lon="0.7626">
        <ele>120.4</ele>
        <time>2022-01-04T14:21:25+01:00</time>
      </trkpt>
      <trkpt lat="44.09877" lon="0.76249">
        <ele>120.5</ele>
        <time>2022-01-04T14:21:35+01:00</time>
      </trkpt>
      <trkpt lat="44.09888" lon="0.76236">
        <ele>120</ele>
        <time>2022-01-04T14:21:46+01:00</time>
      </trkpt>
      <trkpt lat="44.099" lon="0.76225">
        <ele>119.6</ele>
        <time>2022-01-04T14:21:57+01:00</time>
      </trkpt>
      <trkpt lat="44.09912" lon="0.76214">
        <ele>119.3</ele>
        <time>2022-01-04T14:22:07+01:00</time>
      </trkpt>
      <trkpt lat="44.09924" lon="0.76203">
        <ele>118.9</ele>
        <time>2022-01-04T14:22:18+01:00</time>
      </trkpt>
      <trkpt lat="44.09937" lon="0.76193">
        <ele>118.6</ele>
        <time>2022-01-04T14:22:28+01:00</time>
      </trkpt>
      <trkpt lat="44.09949" lon="0.76181">
        <ele>118.3</ele>
        <time>2022-01-04T14:22:38+01:00</time>
      </trkpt>
      <trkpt lat="44.0996" lon="0.76169">
        <ele>118.3</ele>
        <time>2022-01-04T14:22:48+01:00</time>
      </trkpt>
      <trkpt lat="44.09971" lon="0.76157">
        <ele>117.5</ele>
        <time>2022-01-04T14:22:59+01:00</time>
      </trkpt>
      <trkpt lat="44.09983" lon="0.76145">
        <ele>116.6</ele>
        <time>2022-01-04T14:23:11+01:00</time>
      </trkpt>
      <trkpt lat="44.09994" lon="0.76133">
        <ele>115.8</ele>
        <time>2022-01-04T14:23:21+01:00</time>
      </trkpt>
      <trkpt lat="44.10005" lon="0.7612">
        <ele>115.4</ele>
        <time>2022-01-04T14:23:31+01:00</time>
      </trkpt>
      <trkpt lat="44.10015" lon="0.76106">
        <ele>114.9</ele>
        <time>2022-01-04T14:23:42+01:00</time>
      </trkpt>
      <trkpt lat="44.10024" lon="0.76092">
        <ele>113.8</ele>
        <time>2022-01-04T14:23:54+01:00</time>
      </trkpt>
      <trkpt lat="44.10035" lon="0.76077">
        <ele>112.6</ele>
        <time>2022-01-04T14:24:07+01:00</time>
      </trkpt>
      <trkpt lat="44.10046" lon="0.76065">
        <ele>111.7</ele>
        <time>2022-01-04T14:24:18+01:00</time>
      </trkpt>
      <trkpt lat="44.10057" lon="0.76054">
        <ele>110.8</ele>
        <time>2022-01-04T14:24:29+01:00</time>
      </trkpt>
      <trkpt lat="44.10068" lon="0.76043">
        <ele>110.1</ele>
        <time>2022-01-04T14:24:40+01:00</time>
      </trkpt>
      <trkpt lat="44.1008" lon="0.76031">
        <ele>109.3</ele>
        <time>2022-01-04T14:24:51+01:00</time>
      </trkpt>
      <trkpt lat="44.10091" lon="0.76021">
        <ele>108.2</ele>
        <time>2022-01-04T14:25:02+01:00</time>
      </trkpt>
      <trkpt lat="44.10101" lon="0.76006">
        <ele>106.5</ele>
        <time>2022-01-04T14:25:15+01:00</time>
      </trkpt>
      <trkpt lat="44.10112" lon="0.75992">
        <ele>104.3</ele>
        <time>2022-01-04T14:25:28+01:00</time>
      </trkpt>
      <trkpt lat="44.10122" lon="0.75979">
        <ele>101.4</ele>
        <time>2022-01-04T14:25:45+01:00</time>
      </trkpt>
      <trkpt lat="44.10135" lon="0.75972">
        <ele>100</ele>
        <time>2022-01-04T14:25:58+01:00</time>
      </trkpt>
      <trkpt lat="44.10147" lon="0.75964">
        <ele>97.9</ele>
        <time>2022-01-04T14:26:09+01:00</time>
      </trkpt>
      <trkpt lat="44.10159" lon="0.75951">
        <ele>95.3</ele>
        <time>2022-01-04T14:26:22+01:00</time>
      </trkpt>
      <trkpt lat="44.10172" lon="0.75943">
        <ele>93.4</ele>
        <time>2022-01-04T14:26:36+01:00</time>
      </trkpt>
      <trkpt lat="44.10185" lon="0.75937">
        <ele>92</ele>
        <time>2022-01-04T14:26:52+01:00</time>
      </trkpt>
      <trkpt lat="44.10197" lon="0.75927">
        <ele>89.9</ele>
        <time>2022-01-04T14:27:06+01:00</time>
      </trkpt>
      <trkpt lat="44.10208" lon="0.75916">
        <ele>88.3</ele>
        <time>2022-01-04T14:27:23+01:00</time>
      </trkpt>
      <trkpt lat="44.1022" lon="0.75904">
        <ele>86.6</ele>
        <time>2022-01-04T14:27:35+01:00</time>
      </trkpt>
      <trkpt lat="44.10231" lon="0.75892">
        <ele>85.2</ele>
        <time>2022-01-04T14:27:46+01:00</time>
      </trkpt>
      <trkpt lat="44.10244" lon="0.75881">
        <ele>84</ele>
        <time>2022-01-04T14:27:58+01:00</time>
      </trkpt>
      <trkpt lat="44.10254" lon="0.75867">
        <ele>82.3</ele>
        <time>2022-01-04T14:28:10+01:00</time>
      </trkpt>
      <trkpt lat="44.10264" lon="0.75854">
        <ele>80.7</ele>
        <time>2022-01-04T14:28:22+01:00</time>
      </trkpt>
      <trkpt lat="44.10275" lon="0.75841">
        <ele>79.1</ele>
        <time>2022-01-04T14:28:32+01:00</time>
      </trkpt>
      <trkpt lat="44.10286" lon="0.75827">
        <ele>77.4</ele>
        <time>2022-01-04T14:28:44+01:00</time>
      </trkpt>
      <trkpt lat="44.10298" lon="0.75817">
        <ele>75.9</ele>
        <time>2022-01-04T14:28:54+01:00</time>
      </trkpt>
      <trkpt lat="44.10309" lon="0.75804">
        <ele>73.9</ele>
        <time>2022-01-04T14:29:04+01:00</time>
      </trkpt>
      <trkpt lat="44.1032" lon="0.75793">
        <ele>72.3</ele>
        <time>2022-01-04T14:29:15+01:00</time>
      </trkpt>
      <trkpt lat="44.10331" lon="0.75779">
        <ele>70.3</ele>
        <time>2022-01-04T14:29:27+01:00</time>
      </trkpt>
      <trkpt lat="44.10341" lon="0.75765">
        <ele>68.6</ele>
        <time>2022-01-04T14:29:38+01:00</time>
      </trkpt>
      <trkpt lat="44.10355" lon="0.75761">
        <ele>67.7</ele>
        <time>2022-01-04T14:30:07+01:00</time>
      </trkpt>
      <trkpt lat="44.10366" lon="0.75772">
        <ele>67.4</ele>
        <time>2022-01-04T14:30:25+01:00</time>
      </trkpt>
      <trkpt lat="44.10379" lon="0.75781">
        <ele>67</ele>
        <time>2022-01-04T14:30:35+01:00</time>
      </trkpt>
      <trkpt lat="44.10392" lon="0.75789">
        <ele>66.6</ele>
        <time>2022-01-04T14:30:46+01:00</time>
      </trkpt>
      <trkpt lat="44.10404" lon="0.75799">
        <ele>66.6</ele>
        <time>2022-01-04T14:30:57+01:00</time>
      </trkpt>
      <trkpt lat="44.10416" lon="0.75809">
        <ele>66.3</ele>
        <time>2022-01-04T14:31:08+01:00</time>
      </trkpt>
      <trkpt lat="44.10428" lon="0.75818">
        <ele>66.1</ele>
        <time>2022-01-04T14:31:17+01:00</time>
      </trkpt>
      <trkpt lat="44.10441" lon="0.75828">
        <ele>65.4</ele>
        <time>2022-01-04T14:31:28+01:00</time>
      </trkpt>
      <trkpt lat="44.10453" lon="0.75837">
        <ele>65.1</ele>
        <time>2022-01-04T14:31:38+01:00</time>
      </trkpt>
      <trkpt lat="44.10465" lon="0.75847">
        <ele>65.1</ele>
        <time>2022-01-04T14:31:48+01:00</time>
      </trkpt>
      <trkpt lat="44.10478" lon="0.75855">
        <ele>66.1</ele>
        <time>2022-01-04T14:31:58+01:00</time>
      </trkpt>
      <trkpt lat="44.10476" lon="0.75874">
        <ele>65.8</ele>
        <time>2022-01-04T14:32:35+01:00</time>
      </trkpt>
      <trkpt lat="44.10465" lon="0.75886">
        <ele>65.8</ele>
        <time>2022-01-04T14:32:41+01:00</time>
      </trkpt>
      <trkpt lat="44.10542" lon="0.75887">
        <ele>66.6</ele>
        <time>2022-01-04T14:33:03+01:00</time>
      </trkpt>
      <trkpt lat="44.10545" lon="0.75906">
        <ele>66.1</ele>
        <time>2022-01-04T14:33:14+01:00</time>
      </trkpt>
      <trkpt lat="44.10553" lon="0.75923">
        <ele>65</ele>
        <time>2022-01-04T14:33:27+01:00</time>
      </trkpt>
      <trkpt lat="44.10555" lon="0.75942">
        <ele>64.1</ele>
        <time>2022-01-04T14:34:36+01:00</time>
      </trkpt>
      <trkpt lat="44.10547" lon="0.75959">
        <ele>64.1</ele>
        <time>2022-01-04T14:34:48+01:00</time>
      </trkpt>
      <trkpt lat="44.1054" lon="0.75976">
        <ele>64.2</ele>
        <time>2022-01-04T14:34:57+01:00</time>
      </trkpt>
      <trkpt lat="44.10534" lon="0.75995">
        <ele>64.7</ele>
        <time>2022-01-04T14:35:07+01:00</time>
      </trkpt>
      <trkpt lat="44.10529" lon="0.76013">
        <ele>65.4</ele>
        <time>2022-01-04T14:35:19+01:00</time>
      </trkpt>
      <trkpt lat="44.10522" lon="0.76031">
        <ele>66.9</ele>
        <time>2022-01-04T14:35:28+01:00</time>
      </trkpt>
      <trkpt lat="44.10515" lon="0.76049">
        <ele>67.5</ele>
        <time>2022-01-04T14:36:37+01:00</time>
      </trkpt>
      <trkpt lat="44.1051" lon="0.76067">
        <ele>68.1</ele>
        <time>2022-01-04T14:36:47+01:00</time>
      </trkpt>
      <trkpt lat="44.10505" lon="0.76086">
        <ele>68.8</ele>
        <time>2022-01-04T14:36:58+01:00</time>
      </trkpt>
      <trkpt lat="44.10502" lon="0.76104">
        <ele>70.3</ele>
        <time>2022-01-04T14:37:08+01:00</time>
      </trkpt>
      <trkpt lat="44.10499" lon="0.76123">
        <ele>71.2</ele>
        <time>2022-01-04T14:37:18+01:00</time>
      </trkpt>
      <trkpt lat="44.10495" lon="0.76143">
        <ele>71.5</ele>
        <time>2022-01-04T14:37:29+01:00</time>
      </trkpt>
      <trkpt lat="44.10492" lon="0.76162">
        <ele>71.5</ele>
        <time>2022-01-04T14:37:39+01:00</time>
      </trkpt>
      <trkpt lat="44.10489" lon="0.76181">
        <ele>73.1</ele>
        <time>2022-01-04T14:37:53+01:00</time>
      </trkpt>
      <trkpt lat="44.10487" lon="0.762">
        <ele>74.8</ele>
        <time>2022-01-04T14:38:06+01:00</time>
      </trkpt>
      <trkpt lat="44.10485" lon="0.76219">
        <ele>76.1</ele>
        <time>2022-01-04T14:38:16+01:00</time>
      </trkpt>
      <trkpt lat="44.10483" lon="0.76238">
        <ele>77.1</ele>
        <time>2022-01-04T14:38:26+01:00</time>
      </trkpt>
      <trkpt lat="44.10481" lon="0.76258">
        <ele>78</ele>
        <time>2022-01-04T14:38:36+01:00</time>
      </trkpt>
      <trkpt lat="44.1048" lon="0.76278">
        <ele>78.6</ele>
        <time>2022-01-04T14:38:55+01:00</time>
      </trkpt>
      <trkpt lat="44.10477" lon="0.76298">
        <ele>79.3</ele>
        <time>2022-01-04T14:39:06+01:00</time>
      </trkpt>
      <trkpt lat="44.10468" lon="0.76315">
        <ele>80.5</ele>
        <time>2022-01-04T14:39:19+01:00</time>
      </trkpt>
      <trkpt lat="44.10466" lon="0.76335">
        <ele>81.4</ele>
        <time>2022-01-04T14:39:30+01:00</time>
      </trkpt>
      <trkpt lat="44.10462" lon="0.76353">
        <ele>82</ele>
        <time>2022-01-04T14:40:13+01:00</time>
      </trkpt>
      <trkpt lat="44.10469" lon="0.76369">
        <ele>81.4</ele>
        <time>2022-01-04T14:40:30+01:00</time>
      </trkpt>
      <trkpt lat="44.10467" lon="0.76388">
        <ele>81.6</ele>
        <time>2022-01-04T14:40:40+01:00</time>
      </trkpt>
      <trkpt lat="44.10465" lon="0.76407">
        <ele>81.8</ele>
        <time>2022-01-04T14:40:50+01:00</time>
      </trkpt>
      <trkpt lat="44.10463" lon="0.76427">
        <ele>82.1</ele>
        <time>2022-01-04T14:41:00+01:00</time>
      </trkpt>
      <trkpt lat="44.10461" lon="0.76446">
        <ele>82.4</ele>
        <time>2022-01-04T14:41:23+01:00</time>
      </trkpt>
      <trkpt lat="44.10459" lon="0.76465">
        <ele>82.1</ele>
        <time>2022-01-04T14:41:33+01:00</time>
      </trkpt>
      <trkpt lat="44.10457" lon="0.76484">
        <ele>81.9</ele>
        <time>2022-01-04T14:41:43+01:00</time>
      </trkpt>
      <trkpt lat="44.10454" lon="0.76504">
        <ele>81.6</ele>
        <time>2022-01-04T14:41:53+01:00</time>
      </trkpt>
      <trkpt lat="44.10452" lon="0.76522">
        <ele>81.1</ele>
        <time>2022-01-04T14:42:02+01:00</time>
      </trkpt>
      <trkpt lat="44.1045" lon="0.76542">
        <ele>81.3</ele>
        <time>2022-01-04T14:42:12+01:00</time>
      </trkpt>
      <trkpt lat="44.10448" lon="0.76562">
        <ele>81.7</ele>
        <time>2022-01-04T14:42:20+01:00</time>
      </trkpt>
      <trkpt lat="44.10447" lon="0.76581">
        <ele>81.8</ele>
        <time>2022-01-04T14:42:33+01:00</time>
      </trkpt>
      <trkpt lat="44.10447" lon="0.76601">
        <ele>81.7</ele>
        <time>2022-01-04T14:42:42+01:00</time>
      </trkpt>
      <trkpt lat="44.10447" lon="0.7662">
        <ele>81.7</ele>
        <time>2022-01-04T14:42:52+01:00</time>
      </trkpt>
      <trkpt lat="44.10446" lon="0.76641">
        <ele>81.7</ele>
        <time>2022-01-04T14:43:01+01:00</time>
      </trkpt>
      <trkpt lat="44.10446" lon="0.7666">
        <ele>81.1</ele>
        <time>2022-01-04T14:43:11+01:00</time>
      </trkpt>
      <trkpt lat="44.10444" lon="0.76679">
        <ele>80.7</ele>
        <time>2022-01-04T14:43:20+01:00</time>
      </trkpt>
      <trkpt lat="44.10441" lon="0.76698">
        <ele>80.4</ele>
        <time>2022-01-04T14:43:37+01:00</time>
      </trkpt>
      <trkpt lat="44.10437" lon="0.76716">
        <ele>80.3</ele>
        <time>2022-01-04T14:43:47+01:00</time>
      </trkpt>
      <trkpt lat="44.1043" lon="0.76733">
        <ele>81.5</ele>
        <time>2022-01-04T14:44:10+01:00</time>
      </trkpt>
      <trkpt lat="44.10424" lon="0.76751">
        <ele>82.9</ele>
        <time>2022-01-04T14:44:20+01:00</time>
      </trkpt>
      <trkpt lat="44.10416" lon="0.76766">
        <ele>82.9</ele>
        <time>2022-01-04T14:44:28+01:00</time>
      </trkpt>
      <trkpt lat="44.10407" lon="0.76782">
        <ele>82.6</ele>
        <time>2022-01-04T14:44:37+01:00</time>
      </trkpt>
      <trkpt lat="44.10396" lon="0.76794">
        <ele>83</ele>
        <time>2022-01-04T14:44:46+01:00</time>
      </trkpt>
      <trkpt lat="44.10384" lon="0.76803">
        <ele>83.7</ele>
        <time>2022-01-04T14:44:55+01:00</time>
      </trkpt>
      <trkpt lat="44.10372" lon="0.76814">
        <ele>84.7</ele>
        <time>2022-01-04T14:45:08+01:00</time>
      </trkpt>
      <trkpt lat="44.10367" lon="0.76832">
        <ele>85.2</ele>
        <time>2022-01-04T14:46:27+01:00</time>
      </trkpt>
      <trkpt lat="44.10365" lon="0.76852">
        <ele>84.8</ele>
        <time>2022-01-04T14:46:38+01:00</time>
      </trkpt>
      <trkpt lat="44.10363" lon="0.76872">
        <ele>84.4</ele>
        <time>2022-01-04T14:46:50+01:00</time>
      </trkpt>
      <trkpt lat="44.10362" lon="0.76891">
        <ele>83.9</ele>
        <time>2022-01-04T14:47:07+01:00</time>
      </trkpt>
      <trkpt lat="44.10364" lon="0.7691">
        <ele>83.8</ele>
        <time>2022-01-04T14:47:18+01:00</time>
      </trkpt>
      <trkpt lat="44.10365" lon="0.7693">
        <ele>83.3</ele>
        <time>2022-01-04T14:47:28+01:00</time>
      </trkpt>
      <trkpt lat="44.10364" lon="0.76949">
        <ele>82.9</ele>
        <time>2022-01-04T14:47:39+01:00</time>
      </trkpt>
      <trkpt lat="44.10376" lon="0.76962">
        <ele>82.5</ele>
        <time>2022-01-04T14:48:09+01:00</time>
      </trkpt>
      <trkpt lat="44.10387" lon="0.76974">
        <ele>82.1</ele>
        <time>2022-01-04T14:48:19+01:00</time>
      </trkpt>
      <trkpt lat="44.10399" lon="0.76982">
        <ele>81.6</ele>
        <time>2022-01-04T14:48:31+01:00</time>
      </trkpt>
      <trkpt lat="44.10411" lon="0.76994">
        <ele>81.2</ele>
        <time>2022-01-04T14:48:42+01:00</time>
      </trkpt>
      <trkpt lat="44.10425" lon="0.77">
        <ele>80.7</ele>
        <time>2022-01-04T14:49:23+01:00</time>
      </trkpt>
      <trkpt lat="44.10438" lon="0.77009">
        <ele>80.5</ele>
        <time>2022-01-04T14:49:33+01:00</time>
      </trkpt>
      <trkpt lat="44.10453" lon="0.77016">
        <ele>80.4</ele>
        <time>2022-01-04T14:49:44+01:00</time>
      </trkpt>
      <trkpt lat="44.10465" lon="0.77022">
        <ele>80.2</ele>
        <time>2022-01-04T14:49:53+01:00</time>
      </trkpt>
      <trkpt lat="44.10478" lon="0.77028">
        <ele>79.8</ele>
        <time>2022-01-04T14:50:05+01:00</time>
      </trkpt>
      <trkpt lat="44.10492" lon="0.77034">
        <ele>79.3</ele>
        <time>2022-01-04T14:50:15+01:00</time>
      </trkpt>
      <trkpt lat="44.10505" lon="0.77041">
        <ele>78.9</ele>
        <time>2022-01-04T14:50:25+01:00</time>
      </trkpt>
      <trkpt lat="44.10519" lon="0.77046">
        <ele>78.6</ele>
        <time>2022-01-04T14:50:35+01:00</time>
      </trkpt>
      <trkpt lat="44.10533" lon="0.77053">
        <ele>78.1</ele>
        <time>2022-01-04T14:50:46+01:00</time>
      </trkpt>
      <trkpt lat="44.10547" lon="0.77061">
        <ele>78</ele>
        <time>2022-01-04T14:50:56+01:00</time>
      </trkpt>
      <trkpt lat="44.10561" lon="0.77069">
        <ele>77.7</ele>
        <time>2022-01-04T14:51:07+01:00</time>
      </trkpt>
      <trkpt lat="44.10574" lon="0.77074">
        <ele>76.9</ele>
        <time>2022-01-04T14:51:27+01:00</time>
      </trkpt>
      <trkpt lat="44.10587" lon="0.7708">
        <ele>76.1</ele>
        <time>2022-01-04T14:51:39+01:00</time>
      </trkpt>
      <trkpt lat="44.10599" lon="0.7709">
        <ele>75.9</ele>
        <time>2022-01-04T14:52:21+01:00</time>
      </trkpt>
      <trkpt lat="44.1061" lon="0.77101">
        <ele>75.4</ele>
        <time>2022-01-04T14:52:53+01:00</time>
      </trkpt>
      <trkpt lat="44.10605" lon="0.7712">
        <ele>75.2</ele>
        <time>2022-01-04T14:54:10+01:00</time>
      </trkpt>
      <trkpt lat="44.10594" lon="0.77133">
        <ele>75.6</ele>
        <time>2022-01-04T14:54:21+01:00</time>
      </trkpt>
      <trkpt lat="44.10582" lon="0.77144">
        <ele>76</ele>
        <time>2022-01-04T14:54:35+01:00</time>
      </trkpt>
      <trkpt lat="44.1057" lon="0.77155">
        <ele>76.5</ele>
        <time>2022-01-04T14:54:48+01:00</time>
      </trkpt>
      <trkpt lat="44.10558" lon="0.77165">
        <ele>76.9</ele>
        <time>2022-01-04T14:54:58+01:00</time>
      </trkpt>
      <trkpt lat="44.10548" lon="0.77178">
        <ele>77</ele>
        <time>2022-01-04T14:55:09+01:00</time>
      </trkpt>
      <trkpt lat="44.10537" lon="0.7719">
        <ele>77</ele>
        <time>2022-01-04T14:55:19+01:00</time>
      </trkpt>
      <trkpt lat="44.10526" lon="0.77201">
        <ele>77.3</ele>
        <time>2022-01-04T14:55:30+01:00</time>
      </trkpt>
      <trkpt lat="44.10514" lon="0.77211">
        <ele>77.8</ele>
        <time>2022-01-04T14:56:08+01:00</time>
      </trkpt>
      <trkpt lat="44.10503" lon="0.77223">
        <ele>78</ele>
        <time>2022-01-04T14:56:18+01:00</time>
      </trkpt>
      <trkpt lat="44.10492" lon="0.77234">
        <ele>78</ele>
        <time>2022-01-04T14:56:29+01:00</time>
      </trkpt>
      <trkpt lat="44.10479" lon="0.77242">
        <ele>78</ele>
        <time>2022-01-04T14:56:42+01:00</time>
      </trkpt>
      <trkpt lat="44.10467" lon="0.77253">
        <ele>78.1</ele>
        <time>2022-01-04T14:56:55+01:00</time>
      </trkpt>
      <trkpt lat="44.10455" lon="0.77265">
        <ele>78.5</ele>
        <time>2022-01-04T14:57:07+01:00</time>
      </trkpt>
      <trkpt lat="44.10445" lon="0.77278">
        <ele>79</ele>
        <time>2022-01-04T14:57:17+01:00</time>
      </trkpt>
      <trkpt lat="44.10435" lon="0.7729">
        <ele>79</ele>
        <time>2022-01-04T14:57:28+01:00</time>
      </trkpt>
      <trkpt lat="44.10425" lon="0.77304">
        <ele>79</ele>
        <time>2022-01-04T14:57:38+01:00</time>
      </trkpt>
      <trkpt lat="44.10415" lon="0.77317">
        <ele>79</ele>
        <time>2022-01-04T15:00:01+01:00</time>
      </trkpt>
      <trkpt lat="44.10406" lon="0.77331">
        <ele>79</ele>
        <time>2022-01-04T15:00:14+01:00</time>
      </trkpt>
      <trkpt lat="44.10396" lon="0.77346">
        <ele>79</ele>
        <time>2022-01-04T15:00:26+01:00</time>
      </trkpt>
      <trkpt lat="44.10387" lon="0.77361">
        <ele>79.1</ele>
        <time>2022-01-04T15:00:38+01:00</time>
      </trkpt>
      <trkpt lat="44.10377" lon="0.77376">
        <ele>79.4</ele>
        <time>2022-01-04T15:00:50+01:00</time>
      </trkpt>
      <trkpt lat="44.10368" lon="0.77391">
        <ele>79.8</ele>
        <time>2022-01-04T15:01:13+01:00</time>
      </trkpt>
      <trkpt lat="44.1036" lon="0.77407">
        <ele>80</ele>
        <time>2022-01-04T15:01:25+01:00</time>
      </trkpt>
      <trkpt lat="44.10349" lon="0.77422">
        <ele>80</ele>
        <time>2022-01-04T15:01:37+01:00</time>
      </trkpt>
      <trkpt lat="44.10341" lon="0.77437">
        <ele>80</ele>
        <time>2022-01-04T15:01:49+01:00</time>
      </trkpt>
      <trkpt lat="44.10332" lon="0.77452">
        <ele>80.1</ele>
        <time>2022-01-04T15:02:31+01:00</time>
      </trkpt>
      <trkpt lat="44.10323" lon="0.77467">
        <ele>80.4</ele>
        <time>2022-01-04T15:02:44+01:00</time>
      </trkpt>
      <trkpt lat="44.10314" lon="0.77482">
        <ele>80.7</ele>
        <time>2022-01-04T15:02:55+01:00</time>
      </trkpt>
      <trkpt lat="44.10304" lon="0.77497">
        <ele>81</ele>
        <time>2022-01-04T15:03:08+01:00</time>
      </trkpt>
      <trkpt lat="44.10296" lon="0.77513">
        <ele>81</ele>
        <time>2022-01-04T15:03:19+01:00</time>
      </trkpt>
      <trkpt lat="44.10287" lon="0.77528">
        <ele>81</ele>
        <time>2022-01-04T15:03:31+01:00</time>
      </trkpt>
      <trkpt lat="44.10278" lon="0.77544">
        <ele>81</ele>
        <time>2022-01-04T15:03:41+01:00</time>
      </trkpt>
      <trkpt lat="44.10269" lon="0.77557">
        <ele>81</ele>
        <time>2022-01-04T15:03:52+01:00</time>
      </trkpt>
      <trkpt lat="44.10261" lon="0.77574">
        <ele>81</ele>
        <time>2022-01-04T15:04:03+01:00</time>
      </trkpt>
      <trkpt lat="44.10253" lon="0.7759">
        <ele>81</ele>
        <time>2022-01-04T15:04:13+01:00</time>
      </trkpt>
      <trkpt lat="44.10244" lon="0.77605">
        <ele>81.2</ele>
        <time>2022-01-04T15:04:24+01:00</time>
      </trkpt>
      <trkpt lat="44.10236" lon="0.77622">
        <ele>81.7</ele>
        <time>2022-01-04T15:04:37+01:00</time>
      </trkpt>
      <trkpt lat="44.10226" lon="0.77636">
        <ele>82</ele>
        <time>2022-01-04T15:04:49+01:00</time>
      </trkpt>
      <trkpt lat="44.10217" lon="0.7765">
        <ele>82</ele>
        <time>2022-01-04T15:05:00+01:00</time>
      </trkpt>
      <trkpt lat="44.10207" lon="0.77664">
        <ele>82</ele>
        <time>2022-01-04T15:05:11+01:00</time>
      </trkpt>
      <trkpt lat="44.102" lon="0.77682">
        <ele>82</ele>
        <time>2022-01-04T15:05:22+01:00</time>
      </trkpt>
      <trkpt lat="44.10195" lon="0.777">
        <ele>82</ele>
        <time>2022-01-04T15:05:32+01:00</time>
      </trkpt>
      <trkpt lat="44.10192" lon="0.77718">
        <ele>82</ele>
        <time>2022-01-04T15:05:42+01:00</time>
      </trkpt>
      <trkpt lat="44.10188" lon="0.77736">
        <ele>82</ele>
        <time>2022-01-04T15:06:48+01:00</time>
      </trkpt>
      <trkpt lat="44.10182" lon="0.77754">
        <ele>82</ele>
        <time>2022-01-04T15:06:59+01:00</time>
      </trkpt>
      <trkpt lat="44.10178" lon="0.77773">
        <ele>82</ele>
        <time>2022-01-04T15:07:10+01:00</time>
      </trkpt>
      <trkpt lat="44.10173" lon="0.77791">
        <ele>82</ele>
        <time>2022-01-04T15:07:20+01:00</time>
      </trkpt>
      <trkpt lat="44.10169" lon="0.7781">
        <ele>82</ele>
        <time>2022-01-04T15:07:30+01:00</time>
      </trkpt>
      <trkpt lat="44.10163" lon="0.77828">
        <ele>82.1</ele>
        <time>2022-01-04T15:07:40+01:00</time>
      </trkpt>
      <trkpt lat="44.10157" lon="0.77845">
        <ele>82.3</ele>
        <time>2022-01-04T15:07:52+01:00</time>
      </trkpt>
      <trkpt lat="44.10153" lon="0.77864">
        <ele>82.5</ele>
        <time>2022-01-04T15:08:03+01:00</time>
      </trkpt>
      <trkpt lat="44.10148" lon="0.77882">
        <ele>82.7</ele>
        <time>2022-01-04T15:08:13+01:00</time>
      </trkpt>
      <trkpt lat="44.10142" lon="0.779">
        <ele>82.5</ele>
        <time>2022-01-04T15:08:23+01:00</time>
      </trkpt>
      <trkpt lat="44.1014" lon="0.77919">
        <ele>82</ele>
        <time>2022-01-04T15:08:55+01:00</time>
      </trkpt>
      <trkpt lat="44.10134" lon="0.77937">
        <ele>82.1</ele>
        <time>2022-01-04T15:09:13+01:00</time>
      </trkpt>
      <trkpt lat="44.10129" lon="0.77955">
        <ele>82</ele>
        <time>2022-01-04T15:09:24+01:00</time>
      </trkpt>
      <trkpt lat="44.10123" lon="0.77974">
        <ele>82</ele>
        <time>2022-01-04T15:09:35+01:00</time>
      </trkpt>
      <trkpt lat="44.10119" lon="0.77994">
        <ele>81.4</ele>
        <time>2022-01-04T15:09:45+01:00</time>
      </trkpt>
      <trkpt lat="44.10112" lon="0.7801">
        <ele>81</ele>
        <time>2022-01-04T15:09:55+01:00</time>
      </trkpt>
      <trkpt lat="44.10098" lon="0.78013">
        <ele>81.2</ele>
        <time>2022-01-04T15:10:09+01:00</time>
      </trkpt>
      <trkpt lat="44.10085" lon="0.78008">
        <ele>81.3</ele>
        <time>2022-01-04T15:10:30+01:00</time>
      </trkpt>
      <trkpt lat="44.10072" lon="0.78003">
        <ele>81.5</ele>
        <time>2022-01-04T15:10:41+01:00</time>
      </trkpt>
      <trkpt lat="44.10058" lon="0.77995">
        <ele>81.9</ele>
        <time>2022-01-04T15:11:25+01:00</time>
      </trkpt>
      <trkpt lat="44.10045" lon="0.77988">
        <ele>82.2</ele>
        <time>2022-01-04T15:11:54+01:00</time>
      </trkpt>
      <trkpt lat="44.10031" lon="0.77984">
        <ele>82.4</ele>
        <time>2022-01-04T15:12:04+01:00</time>
      </trkpt>
      <trkpt lat="44.10018" lon="0.77978">
        <ele>82.6</ele>
        <time>2022-01-04T15:12:14+01:00</time>
      </trkpt>
      <trkpt lat="44.10004" lon="0.77972">
        <ele>82.8</ele>
        <time>2022-01-04T15:12:25+01:00</time>
      </trkpt>
      <trkpt lat="44.09992" lon="0.77963">
        <ele>83.2</ele>
        <time>2022-01-04T15:12:34+01:00</time>
      </trkpt>
      <trkpt lat="44.09979" lon="0.77955">
        <ele>83.3</ele>
        <time>2022-01-04T15:12:42+01:00</time>
      </trkpt>
      <trkpt lat="44.09966" lon="0.77947">
        <ele>83.3</ele>
        <time>2022-01-04T15:12:52+01:00</time>
      </trkpt>
      <trkpt lat="44.09952" lon="0.77937">
        <ele>83.8</ele>
        <time>2022-01-04T15:13:03+01:00</time>
      </trkpt>
      <trkpt lat="44.0994" lon="0.77927">
        <ele>84.1</ele>
        <time>2022-01-04T15:13:12+01:00</time>
      </trkpt>
      <trkpt lat="44.09927" lon="0.7792">
        <ele>84.1</ele>
        <time>2022-01-04T15:13:49+01:00</time>
      </trkpt>
      <trkpt lat="44.09914" lon="0.77913">
        <ele>84.3</ele>
        <time>2022-01-04T15:13:58+01:00</time>
      </trkpt>
      <trkpt lat="44.09902" lon="0.77904">
        <ele>84.8</ele>
        <time>2022-01-04T15:14:16+01:00</time>
      </trkpt>
      <trkpt lat="44.09889" lon="0.77896">
        <ele>84.5</ele>
        <time>2022-01-04T15:14:26+01:00</time>
      </trkpt>
      <trkpt lat="44.09876" lon="0.77886">
        <ele>84.6</ele>
        <time>2022-01-04T15:14:36+01:00</time>
      </trkpt>
      <trkpt lat="44.09862" lon="0.77882">
        <ele>85.2</ele>
        <time>2022-01-04T15:14:46+01:00</time>
      </trkpt>
      <trkpt lat="44.09848" lon="0.77883">
        <ele>85.6</ele>
        <time>2022-01-04T15:14:57+01:00</time>
      </trkpt>
      <trkpt lat="44.09834" lon="0.77887">
        <ele>86</ele>
        <time>2022-01-04T15:15:06+01:00</time>
      </trkpt>
      <trkpt lat="44.09823" lon="0.77897">
        <ele>86.2</ele>
        <time>2022-01-04T15:15:15+01:00</time>
      </trkpt>
      <trkpt lat="44.09811" lon="0.77908">
        <ele>86.1</ele>
        <time>2022-01-04T15:15:26+01:00</time>
      </trkpt>
      <trkpt lat="44.09806" lon="0.77925">
        <ele>86</ele>
        <time>2022-01-04T15:15:36+01:00</time>
      </trkpt>
      <trkpt lat="44.098" lon="0.77943">
        <ele>86</ele>
        <time>2022-01-04T15:15:56+01:00</time>
      </trkpt>
      <trkpt lat="44.09795" lon="0.77962">
        <ele>86</ele>
        <time>2022-01-04T15:16:15+01:00</time>
      </trkpt>
      <trkpt lat="44.09789" lon="0.7798">
        <ele>85.7</ele>
        <time>2022-01-04T15:16:25+01:00</time>
      </trkpt>
      <trkpt lat="44.09783" lon="0.77997">
        <ele>85.1</ele>
        <time>2022-01-04T15:16:34+01:00</time>
      </trkpt>
      <trkpt lat="44.09779" lon="0.78015">
        <ele>85</ele>
        <time>2022-01-04T15:16:44+01:00</time>
      </trkpt>
      <trkpt lat="44.09773" lon="0.78033">
        <ele>85</ele>
        <time>2022-01-04T15:16:54+01:00</time>
      </trkpt>
      <trkpt lat="44.09769" lon="0.78052">
        <ele>84.8</ele>
        <time>2022-01-04T15:17:04+01:00</time>
      </trkpt>
      <trkpt lat="44.09764" lon="0.7807">
        <ele>84.8</ele>
        <time>2022-01-04T15:17:14+01:00</time>
      </trkpt>
      <trkpt lat="44.09758" lon="0.78088">
        <ele>84.7</ele>
        <time>2022-01-04T15:17:24+01:00</time>
      </trkpt>
      <trkpt lat="44.09752" lon="0.78106">
        <ele>84.9</ele>
        <time>2022-01-04T15:17:34+01:00</time>
      </trkpt>
      <trkpt lat="44.09745" lon="0.78123">
        <ele>85.1</ele>
        <time>2022-01-04T15:17:44+01:00</time>
      </trkpt>
      <trkpt lat="44.09739" lon="0.78142">
        <ele>85</ele>
        <time>2022-01-04T15:17:54+01:00</time>
      </trkpt>
      <trkpt lat="44.09731" lon="0.7816">
        <ele>85</ele>
        <time>2022-01-04T15:18:05+01:00</time>
      </trkpt>
      <trkpt lat="44.09726" lon="0.78178">
        <ele>85</ele>
        <time>2022-01-04T15:18:14+01:00</time>
      </trkpt>
      <trkpt lat="44.09719" lon="0.78195">
        <ele>85.1</ele>
        <time>2022-01-04T15:18:24+01:00</time>
      </trkpt>
      <trkpt lat="44.09707" lon="0.78204">
        <ele>85.5</ele>
        <time>2022-01-04T15:19:11+01:00</time>
      </trkpt>
      <trkpt lat="44.09693" lon="0.78211">
        <ele>86</ele>
        <time>2022-01-04T15:19:20+01:00</time>
      </trkpt>
      <trkpt lat="44.09681" lon="0.78222">
        <ele>86.5</ele>
        <time>2022-01-04T15:19:31+01:00</time>
      </trkpt>
      <trkpt lat="44.09671" lon="0.78209">
        <ele>86.9</ele>
        <time>2022-01-04T15:20:54+01:00</time>
      </trkpt>
      <trkpt lat="44.09665" lon="0.78192">
        <ele>87.1</ele>
        <time>2022-01-04T15:21:06+01:00</time>
      </trkpt>
      <trkpt lat="44.09657" lon="0.78176">
        <ele>87.7</ele>
        <time>2022-01-04T15:21:14+01:00</time>
      </trkpt>
      <trkpt lat="44.09653" lon="0.78157">
        <ele>87.8</ele>
        <time>2022-01-04T15:21:24+01:00</time>
      </trkpt>
      <trkpt lat="44.09647" lon="0.78139">
        <ele>87.7</ele>
        <time>2022-01-04T15:21:35+01:00</time>
      </trkpt>
      <trkpt lat="44.09642" lon="0.7812">
        <ele>89.8</ele>
        <time>2022-01-04T15:21:56+01:00</time>
      </trkpt>
      <trkpt lat="44.09635" lon="0.78101">
        <ele>92.3</ele>
        <time>2022-01-04T15:22:06+01:00</time>
      </trkpt>
      <trkpt lat="44.09632" lon="0.78082">
        <ele>93.5</ele>
        <time>2022-01-04T15:22:14+01:00</time>
      </trkpt>
      <trkpt lat="44.0962" lon="0.78073">
        <ele>92</ele>
        <time>2022-01-04T15:22:24+01:00</time>
      </trkpt>
      <trkpt lat="44.09615" lon="0.78056">
        <ele>90.4</ele>
        <time>2022-01-04T15:22:37+01:00</time>
      </trkpt>
      <trkpt lat="44.09609" lon="0.78039">
        <ele>90</ele>
        <time>2022-01-04T15:22:47+01:00</time>
      </trkpt>
      <trkpt lat="44.09604" lon="0.7802">
        <ele>90.7</ele>
        <time>2022-01-04T15:23:09+01:00</time>
      </trkpt>
      <trkpt lat="44.09598" lon="0.78003">
        <ele>91.9</ele>
        <time>2022-01-04T15:23:34+01:00</time>
      </trkpt>
      <trkpt lat="44.09592" lon="0.77985">
        <ele>92.6</ele>
        <time>2022-01-04T15:24:02+01:00</time>
      </trkpt>
      <trkpt lat="44.09589" lon="0.77967">
        <ele>92.1</ele>
        <time>2022-01-04T15:24:16+01:00</time>
      </trkpt>
      <trkpt lat="44.09585" lon="0.77946">
        <ele>91</ele>
        <time>2022-01-04T15:24:25+01:00</time>
      </trkpt>
      <trkpt lat="44.09576" lon="0.7793">
        <ele>91.5</ele>
        <time>2022-01-04T15:24:47+01:00</time>
      </trkpt>
      <trkpt lat="44.09573" lon="0.77948">
        <ele>92.4</ele>
        <time>2022-01-04T15:25:24+01:00</time>
      </trkpt>
      <trkpt lat="44.09578" lon="0.77967">
        <ele>93.2</ele>
        <time>2022-01-04T15:25:36+01:00</time>
      </trkpt>
      <trkpt lat="44.09582" lon="0.77987">
        <ele>94.2</ele>
        <time>2022-01-04T15:25:47+01:00</time>
      </trkpt>
      <trkpt lat="44.09588" lon="0.78005">
        <ele>94.1</ele>
        <time>2022-01-04T15:25:57+01:00</time>
      </trkpt>
      <trkpt lat="44.09592" lon="0.78023">
        <ele>93.7</ele>
        <time>2022-01-04T15:26:07+01:00</time>
      </trkpt>
      <trkpt lat="44.09598" lon="0.78041">
        <ele>92.6</ele>
        <time>2022-01-04T15:26:20+01:00</time>
      </trkpt>
      <trkpt lat="44.09603" lon="0.78058">
        <ele>91.8</ele>
        <time>2022-01-04T15:26:32+01:00</time>
      </trkpt>
      <trkpt lat="44.09604" lon="0.78078">
        <ele>92.7</ele>
        <time>2022-01-04T15:26:51+01:00</time>
      </trkpt>
      <trkpt lat="44.09596" lon="0.78095">
        <ele>94.5</ele>
        <time>2022-01-04T15:27:03+01:00</time>
      </trkpt>
      <trkpt lat="44.09588" lon="0.78111">
        <ele>95</ele>
        <time>2022-01-04T15:27:17+01:00</time>
      </trkpt>
      <trkpt lat="44.09579" lon="0.78127">
        <ele>95.6</ele>
        <time>2022-01-04T15:27:29+01:00</time>
      </trkpt>
      <trkpt lat="44.09569" lon="0.78142">
        <ele>96.5</ele>
        <time>2022-01-04T15:27:41+01:00</time>
      </trkpt>
      <trkpt lat="44.09559" lon="0.78156">
        <ele>96.5</ele>
        <time>2022-01-04T15:27:52+01:00</time>
      </trkpt>
      <trkpt lat="44.0955" lon="0.78171">
        <ele>96.6</ele>
        <time>2022-01-04T15:28:02+01:00</time>
      </trkpt>
      <trkpt lat="44.0954" lon="0.78185">
        <ele>97.3</ele>
        <time>2022-01-04T15:28:14+01:00</time>
      </trkpt>
      <trkpt lat="44.09531" lon="0.782">
        <ele>97.5</ele>
        <time>2022-01-04T15:28:24+01:00</time>
      </trkpt>
      <trkpt lat="44.09521" lon="0.78214">
        <ele>97.8</ele>
        <time>2022-01-04T15:28:34+01:00</time>
      </trkpt>
      <trkpt lat="44.09513" lon="0.7823">
        <ele>97.6</ele>
        <time>2022-01-04T15:28:45+01:00</time>
      </trkpt>
      <trkpt lat="44.09505" lon="0.78245">
        <ele>97.1</ele>
        <time>2022-01-04T15:28:56+01:00</time>
      </trkpt>
      <trkpt lat="44.09497" lon="0.78261">
        <ele>96.8</ele>
        <time>2022-01-04T15:29:07+01:00</time>
      </trkpt>
      <trkpt lat="44.09489" lon="0.78277">
        <ele>96.8</ele>
        <time>2022-01-04T15:29:16+01:00</time>
      </trkpt>
      <trkpt lat="44.09481" lon="0.78294">
        <ele>96.6</ele>
        <time>2022-01-04T15:29:26+01:00</time>
      </trkpt>
      <trkpt lat="44.09472" lon="0.78309">
        <ele>96.1</ele>
        <time>2022-01-04T15:29:35+01:00</time>
      </trkpt>
      <trkpt lat="44.09463" lon="0.78324">
        <ele>97.2</ele>
        <time>2022-01-04T15:29:46+01:00</time>
      </trkpt>
      <trkpt lat="44.09454" lon="0.7834">
        <ele>97.5</ele>
        <time>2022-01-04T15:29:58+01:00</time>
      </trkpt>
      <trkpt lat="44.09443" lon="0.78354">
        <ele>97.4</ele>
        <time>2022-01-04T15:30:10+01:00</time>
      </trkpt>
      <trkpt lat="44.09435" lon="0.78369">
        <ele>98.1</ele>
        <time>2022-01-04T15:30:22+01:00</time>
      </trkpt>
      <trkpt lat="44.09424" lon="0.78383">
        <ele>99.2</ele>
        <time>2022-01-04T15:30:34+01:00</time>
      </trkpt>
      <trkpt lat="44.09417" lon="0.784">
        <ele>99.6</ele>
        <time>2022-01-04T15:30:46+01:00</time>
      </trkpt>
      <trkpt lat="44.09409" lon="0.78416">
        <ele>100.3</ele>
        <time>2022-01-04T15:31:25+01:00</time>
      </trkpt>
      <trkpt lat="44.09401" lon="0.78432">
        <ele>101.3</ele>
        <time>2022-01-04T15:31:35+01:00</time>
      </trkpt>
      <trkpt lat="44.09391" lon="0.78446">
        <ele>102.5</ele>
        <time>2022-01-04T15:31:48+01:00</time>
      </trkpt>
      <trkpt lat="44.09382" lon="0.78462">
        <ele>102</ele>
        <time>2022-01-04T15:32:01+01:00</time>
      </trkpt>
      <trkpt lat="44.09373" lon="0.78477">
        <ele>101.9</ele>
        <time>2022-01-04T15:32:12+01:00</time>
      </trkpt>
      <trkpt lat="44.09364" lon="0.7849">
        <ele>102.4</ele>
        <time>2022-01-04T15:32:22+01:00</time>
      </trkpt>
      <trkpt lat="44.09356" lon="0.78507">
        <ele>102</ele>
        <time>2022-01-04T15:32:34+01:00</time>
      </trkpt>
      <trkpt lat="44.09347" lon="0.78521">
        <ele>102.1</ele>
        <time>2022-01-04T15:33:31+01:00</time>
      </trkpt>
      <trkpt lat="44.09333" lon="0.78526">
        <ele>103.1</ele>
        <time>2022-01-04T15:34:34+01:00</time>
      </trkpt>
      <trkpt lat="44.09323" lon="0.78513">
        <ele>105</ele>
        <time>2022-01-04T15:34:49+01:00</time>
      </trkpt>
      <trkpt lat="44.09314" lon="0.78498">
        <ele>106.5</ele>
        <time>2022-01-04T15:35:02+01:00</time>
      </trkpt>
      <trkpt lat="44.09307" lon="0.78482">
        <ele>107.6</ele>
        <time>2022-01-04T15:35:16+01:00</time>
      </trkpt>
      <trkpt lat="44.09298" lon="0.78467">
        <ele>108.5</ele>
        <time>2022-01-04T15:35:28+01:00</time>
      </trkpt>
      <trkpt lat="44.09285" lon="0.78471">
        <ele>108.8</ele>
        <time>2022-01-04T15:36:55+01:00</time>
      </trkpt>
      <trkpt lat="44.09273" lon="0.78483">
        <ele>109</ele>
        <time>2022-01-04T15:37:14+01:00</time>
      </trkpt>
      <trkpt lat="44.09263" lon="0.78495">
        <ele>109.3</ele>
        <time>2022-01-04T15:37:25+01:00</time>
      </trkpt>
      <trkpt lat="44.09252" lon="0.78508">
        <ele>109.6</ele>
        <time>2022-01-04T15:37:35+01:00</time>
      </trkpt>
      <trkpt lat="44.09242" lon="0.7852">
        <ele>110.1</ele>
        <time>2022-01-04T15:37:45+01:00</time>
      </trkpt>
      <trkpt lat="44.09233" lon="0.78534">
        <ele>110.5</ele>
        <time>2022-01-04T15:37:55+01:00</time>
      </trkpt>
      <trkpt lat="44.09223" lon="0.78548">
        <ele>110.4</ele>
        <time>2022-01-04T15:38:04+01:00</time>
      </trkpt>
      <trkpt lat="44.09213" lon="0.78563">
        <ele>110.9</ele>
        <time>2022-01-04T15:38:14+01:00</time>
      </trkpt>
      <trkpt lat="44.09204" lon="0.78579">
        <ele>111.2</ele>
        <time>2022-01-04T15:38:24+01:00</time>
      </trkpt>
      <trkpt lat="44.09194" lon="0.78594">
        <ele>110.9</ele>
        <time>2022-01-04T15:38:35+01:00</time>
      </trkpt>
      <trkpt lat="44.09185" lon="0.78607">
        <ele>110.5</ele>
        <time>2022-01-04T15:38:46+01:00</time>
      </trkpt>
      <trkpt lat="44.09177" lon="0.78623">
        <ele>110.2</ele>
        <time>2022-01-04T15:38:58+01:00</time>
      </trkpt>
      <trkpt lat="44.09169" lon="0.78639">
        <ele>109.9</ele>
        <time>2022-01-04T15:40:07+01:00</time>
      </trkpt>
      <trkpt lat="44.09157" lon="0.7865">
        <ele>109.9</ele>
        <time>2022-01-04T15:40:22+01:00</time>
      </trkpt>
      <trkpt lat="44.09147" lon="0.78662">
        <ele>109.8</ele>
        <time>2022-01-04T15:40:35+01:00</time>
      </trkpt>
      <trkpt lat="44.09136" lon="0.78676">
        <ele>109.1</ele>
        <time>2022-01-04T15:40:46+01:00</time>
      </trkpt>
      <trkpt lat="44.09127" lon="0.78691">
        <ele>107.8</ele>
        <time>2022-01-04T15:40:58+01:00</time>
      </trkpt>
      <trkpt lat="44.09116" lon="0.78704">
        <ele>106.8</ele>
        <time>2022-01-04T15:41:10+01:00</time>
      </trkpt>
      <trkpt lat="44.09108" lon="0.78721">
        <ele>105.4</ele>
        <time>2022-01-04T15:41:41+01:00</time>
      </trkpt>
      <trkpt lat="44.09094" lon="0.78723">
        <ele>106.3</ele>
        <time>2022-01-04T15:43:14+01:00</time>
      </trkpt>
      <trkpt lat="44.0908" lon="0.7872">
        <ele>107.4</ele>
        <time>2022-01-04T15:43:24+01:00</time>
      </trkpt>
      <trkpt lat="44.09067" lon="0.78718">
        <ele>108.6</ele>
        <time>2022-01-04T15:43:34+01:00</time>
      </trkpt>
      <trkpt lat="44.09052" lon="0.78711">
        <ele>109.9</ele>
        <time>2022-01-04T15:43:45+01:00</time>
      </trkpt>
      <trkpt lat="44.09038" lon="0.78709">
        <ele>110.6</ele>
        <time>2022-01-04T15:43:56+01:00</time>
      </trkpt>
      <trkpt lat="44.09023" lon="0.78707">
        <ele>111.3</ele>
        <time>2022-01-04T15:44:08+01:00</time>
      </trkpt>
      <trkpt lat="44.0901" lon="0.78704">
        <ele>112</ele>
        <time>2022-01-04T15:44:21+01:00</time>
      </trkpt>
      <trkpt lat="44.08996" lon="0.78699">
        <ele>112.4</ele>
        <time>2022-01-04T15:45:40+01:00</time>
      </trkpt>
      <trkpt lat="44.08983" lon="0.78692">
        <ele>113.6</ele>
        <time>2022-01-04T15:45:51+01:00</time>
      </trkpt>
      <trkpt lat="44.08968" lon="0.78689">
        <ele>115</ele>
        <time>2022-01-04T15:46:01+01:00</time>
      </trkpt>
      <trkpt lat="44.08955" lon="0.78682">
        <ele>116.7</ele>
        <time>2022-01-04T15:46:12+01:00</time>
      </trkpt>
      <trkpt lat="44.08941" lon="0.78678">
        <ele>117.6</ele>
        <time>2022-01-04T15:46:22+01:00</time>
      </trkpt>
      <trkpt lat="44.08928" lon="0.78673">
        <ele>117.9</ele>
        <time>2022-01-04T15:46:32+01:00</time>
      </trkpt>
      <trkpt lat="44.08915" lon="0.78665">
        <ele>118.2</ele>
        <time>2022-01-04T15:47:06+01:00</time>
      </trkpt>
      <trkpt lat="44.08902" lon="0.78661">
        <ele>119.7</ele>
        <time>2022-01-04T15:47:18+01:00</time>
      </trkpt>
      <trkpt lat="44.08888" lon="0.78659">
        <ele>120.9</ele>
        <time>2022-01-04T15:47:28+01:00</time>
      </trkpt>
      <trkpt lat="44.08874" lon="0.78658">
        <ele>123</ele>
        <time>2022-01-04T15:47:39+01:00</time>
      </trkpt>
      <trkpt lat="44.0886" lon="0.78654">
        <ele>125</ele>
        <time>2022-01-04T15:47:51+01:00</time>
      </trkpt>
      <trkpt lat="44.08846" lon="0.7865">
        <ele>126.3</ele>
        <time>2022-01-04T15:48:03+01:00</time>
      </trkpt>
      <trkpt lat="44.08833" lon="0.78646">
        <ele>127.5</ele>
        <time>2022-01-04T15:48:13+01:00</time>
      </trkpt>
      <trkpt lat="44.08818" lon="0.78651">
        <ele>127.4</ele>
        <time>2022-01-04T15:48:24+01:00</time>
      </trkpt>
      <trkpt lat="44.08804" lon="0.78651">
        <ele>127.7</ele>
        <time>2022-01-04T15:48:37+01:00</time>
      </trkpt>
      <trkpt lat="44.08792" lon="0.78645">
        <ele>128.9</ele>
        <time>2022-01-04T15:49:08+01:00</time>
      </trkpt>
      <trkpt lat="44.08789" lon="0.78572">
        <ele>132.2</ele>
        <time>2022-01-04T16:27:19+01:00</time>
      </trkpt>
      <trkpt lat="44.08785" lon="0.7848">
        <ele>133</ele>
        <time>2022-01-04T16:27:58+01:00</time>
      </trkpt>
      <trkpt lat="44.08789" lon="0.78525">
        <ele>133</ele>
        <time>2022-01-04T16:28:38+01:00</time>
      </trkpt>
      <trkpt lat="44.08802" lon="0.78435">
        <ele>134</ele>
        <time>2022-01-04T16:30:10+01:00</time>
      </trkpt>
      <trkpt lat="44.08802" lon="0.78384">
        <ele>133.9</ele>
        <time>2022-01-04T16:31:46+01:00</time>
      </trkpt>
      <trkpt lat="44.08807" lon="0.78317">
        <ele>134</ele>
        <time>2022-01-04T16:32:11+01:00</time>
      </trkpt>
      <trkpt lat="44.088" lon="0.78207">
        <ele>132</ele>
        <time>2022-01-04T16:33:10+01:00</time>
      </trkpt>
      <trkpt lat="44.08804" lon="0.78162">
        <ele>130.7</ele>
        <time>2022-01-04T16:33:20+01:00</time>
      </trkpt>
      <trkpt lat="44.08793" lon="0.78078">
        <ele>127.9</ele>
        <time>2022-01-04T16:33:42+01:00</time>
      </trkpt>
      <trkpt lat="44.08799" lon="0.78002">
        <ele>126.6</ele>
        <time>2022-01-04T16:34:05+01:00</time>
      </trkpt>
      <trkpt lat="44.08812" lon="0.77917">
        <ele>124.2</ele>
        <time>2022-01-04T16:34:53+01:00</time>
      </trkpt>
      <trkpt lat="44.08814" lon="0.77839">
        <ele>121.3</ele>
        <time>2022-01-04T16:38:34+01:00</time>
      </trkpt>
      <trkpt lat="44.08807" lon="0.77825">
        <ele>119.3</ele>
        <time>2022-01-04T16:39:36+01:00</time>
      </trkpt>
      <trkpt lat="44.088" lon="0.7767">
        <ele>106.5</ele>
        <time>2022-01-04T16:40:49+01:00</time>
      </trkpt>
      <trkpt lat="44.08784" lon="0.77495">
        <ele>102</ele>
        <time>2022-01-04T16:41:12+01:00</time>
      </trkpt>
      <trkpt lat="44.08799" lon="0.77612">
        <ele>103.8</ele>
        <time>2022-01-04T16:41:22+01:00</time>
      </trkpt>
      <trkpt lat="44.08804" lon="0.77558">
        <ele>103</ele>
        <time>2022-01-04T16:41:44+01:00</time>
      </trkpt>
      <trkpt lat="44.08745" lon="0.77577">
        <ele>102.6</ele>
        <time>2022-01-04T16:41:54+01:00</time>
      </trkpt>
      <trkpt lat="44.08733" lon="0.77649">
        <ele>103</ele>
        <time>2022-01-04T16:42:29+01:00</time>
      </trkpt>
      <trkpt lat="44.08693" lon="0.7771">
        <ele>103.6</ele>
        <time>2022-01-04T16:44:16+01:00</time>
      </trkpt>
      <trkpt lat="44.08638" lon="0.77803">
        <ele>105.1</ele>
        <time>2022-01-04T16:45:50+01:00</time>
      </trkpt>
      <trkpt lat="44.08656" lon="0.77749">
        <ele>104.8</ele>
        <time>2022-01-04T16:46:07+01:00</time>
      </trkpt>
      <trkpt lat="44.08615" lon="0.77886">
        <ele>105.1</ele>
        <time>2022-01-04T16:46:25+01:00</time>
      </trkpt>
      <trkpt lat="44.08622" lon="0.77836">
        <ele>105.6</ele>
        <time>2022-01-04T16:46:45+01:00</time>
      </trkpt>
      <trkpt lat="44.08583" lon="0.77942">
        <ele>106</ele>
        <time>2022-01-04T16:47:14+01:00</time>
      </trkpt>
      <trkpt lat="44.08551" lon="0.77995">
        <ele>109.7</ele>
        <time>2022-01-04T16:49:26+01:00</time>
      </trkpt>
      <trkpt lat="44.08532" lon="0.78135">
        <ele>111.5</ele>
        <time>2022-01-04T16:51:16+01:00</time>
      </trkpt>
      <trkpt lat="44.08495" lon="0.7813">
        <ele>115.6</ele>
        <time>2022-01-04T16:51:37+01:00</time>
      </trkpt>
      <trkpt lat="44.08474" lon="0.78105">
        <ele>118.1</ele>
        <time>2022-01-04T16:52:02+01:00</time>
      </trkpt>
      <trkpt lat="44.08461" lon="0.78094">
        <ele>119.8</ele>
        <time>2022-01-04T16:52:11+01:00</time>
      </trkpt>
      <trkpt lat="44.08449" lon="0.78084">
        <ele>121.5</ele>
        <time>2022-01-04T16:52:23+01:00</time>
      </trkpt>
      <trkpt lat="44.08436" lon="0.78075">
        <ele>123.3</ele>
        <time>2022-01-04T16:52:35+01:00</time>
      </trkpt>
      <trkpt lat="44.08423" lon="0.78066">
        <ele>124.9</ele>
        <time>2022-01-04T16:52:47+01:00</time>
      </trkpt>
      <trkpt lat="44.08411" lon="0.78055">
        <ele>126.6</ele>
        <time>2022-01-04T16:53:43+01:00</time>
      </trkpt>
      <trkpt lat="44.08399" lon="0.78043">
        <ele>128.1</ele>
        <time>2022-01-04T16:53:54+01:00</time>
      </trkpt>
      <trkpt lat="44.08387" lon="0.78032">
        <ele>129.1</ele>
        <time>2022-01-04T16:54:04+01:00</time>
      </trkpt>
      <trkpt lat="44.08374" lon="0.78021">
        <ele>129.9</ele>
        <time>2022-01-04T16:54:15+01:00</time>
      </trkpt>
      <trkpt lat="44.08363" lon="0.78009">
        <ele>130.2</ele>
        <time>2022-01-04T16:54:25+01:00</time>
      </trkpt>
      <trkpt lat="44.08352" lon="0.77998">
        <ele>131.1</ele>
        <time>2022-01-04T16:54:35+01:00</time>
      </trkpt>
      <trkpt lat="44.0834" lon="0.77986">
        <ele>132.5</ele>
        <time>2022-01-04T16:54:47+01:00</time>
      </trkpt>
      <trkpt lat="44.08329" lon="0.77976">
        <ele>133.2</ele>
        <time>2022-01-04T16:54:57+01:00</time>
      </trkpt>
      <trkpt lat="44.08317" lon="0.77965">
        <ele>133.4</ele>
        <time>2022-01-04T16:55:08+01:00</time>
      </trkpt>
      <trkpt lat="44.08306" lon="0.77953">
        <ele>133.3</ele>
        <time>2022-01-04T16:55:20+01:00</time>
      </trkpt>
      <trkpt lat="44.08304" lon="0.77934">
        <ele>133</ele>
        <time>2022-01-04T16:55:36+01:00</time>
      </trkpt>
      <trkpt lat="44.08314" lon="0.77919">
        <ele>133.3</ele>
        <time>2022-01-04T16:55:48+01:00</time>
      </trkpt>
      <trkpt lat="44.08324" lon="0.77906">
        <ele>133.2</ele>
        <time>2022-01-04T16:55:58+01:00</time>
      </trkpt>
      <trkpt lat="44.08334" lon="0.77893">
        <ele>133.1</ele>
        <time>2022-01-04T16:56:07+01:00</time>
      </trkpt>
      <trkpt lat="44.08344" lon="0.77878">
        <ele>132.5</ele>
        <time>2022-01-04T16:56:18+01:00</time>
      </trkpt>
      <trkpt lat="44.08353" lon="0.77864">
        <ele>132.5</ele>
        <time>2022-01-04T16:56:27+01:00</time>
      </trkpt>
      <trkpt lat="44.08363" lon="0.7785">
        <ele>132.1</ele>
        <time>2022-01-04T16:56:37+01:00</time>
      </trkpt>
      <trkpt lat="44.08373" lon="0.77837">
        <ele>131.2</ele>
        <time>2022-01-04T16:56:46+01:00</time>
      </trkpt>
      <trkpt lat="44.08384" lon="0.77825">
        <ele>130.4</ele>
        <time>2022-01-04T16:56:55+01:00</time>
      </trkpt>
      <trkpt lat="44.08394" lon="0.77812">
        <ele>129.4</ele>
        <time>2022-01-04T16:57:05+01:00</time>
      </trkpt>
      <trkpt lat="44.08403" lon="0.77798">
        <ele>128.7</ele>
        <time>2022-01-04T16:57:15+01:00</time>
      </trkpt>
      <trkpt lat="44.08414" lon="0.77784">
        <ele>128.2</ele>
        <time>2022-01-04T16:57:24+01:00</time>
      </trkpt>
      <trkpt lat="44.08424" lon="0.77769">
        <ele>127.7</ele>
        <time>2022-01-04T16:57:34+01:00</time>
      </trkpt>
      <trkpt lat="44.08433" lon="0.77753">
        <ele>127.1</ele>
        <time>2022-01-04T16:57:44+01:00</time>
      </trkpt>
      <trkpt lat="44.08442" lon="0.77736">
        <ele>127</ele>
        <time>2022-01-04T16:57:54+01:00</time>
      </trkpt>
      <trkpt lat="44.08447" lon="0.77717">
        <ele>127.1</ele>
        <time>2022-01-04T16:58:04+01:00</time>
      </trkpt>
      <trkpt lat="44.08453" lon="0.77699">
        <ele>127.1</ele>
        <time>2022-01-04T16:58:14+01:00</time>
      </trkpt>
      <trkpt lat="44.08457" lon="0.7768">
        <ele>126.7</ele>
        <time>2022-01-04T16:58:24+01:00</time>
      </trkpt>
      <trkpt lat="44.0846" lon="0.77661">
        <ele>126.3</ele>
        <time>2022-01-04T16:58:34+01:00</time>
      </trkpt>
      <trkpt lat="44.08464" lon="0.77643">
        <ele>125.6</ele>
        <time>2022-01-04T16:58:43+01:00</time>
      </trkpt>
      <trkpt lat="44.08467" lon="0.77623">
        <ele>124.9</ele>
        <time>2022-01-04T16:58:53+01:00</time>
      </trkpt>
      <trkpt lat="44.08469" lon="0.77603">
        <ele>124.1</ele>
        <time>2022-01-04T16:59:03+01:00</time>
      </trkpt>
      <trkpt lat="44.08476" lon="0.77586">
        <ele>123.6</ele>
        <time>2022-01-04T16:59:12+01:00</time>
      </trkpt>
      <trkpt lat="44.08481" lon="0.77568">
        <ele>123</ele>
        <time>2022-01-04T16:59:21+01:00</time>
      </trkpt>
      <trkpt lat="44.08485" lon="0.77548">
        <ele>122.3</ele>
        <time>2022-01-04T16:59:30+01:00</time>
      </trkpt>
      <trkpt lat="44.08489" lon="0.77529">
        <ele>121.5</ele>
        <time>2022-01-04T16:59:41+01:00</time>
      </trkpt>
      <trkpt lat="44.08492" lon="0.7751">
        <ele>120.6</ele>
        <time>2022-01-04T16:59:51+01:00</time>
      </trkpt>
      <trkpt lat="44.08499" lon="0.77492">
        <ele>119.6</ele>
        <time>2022-01-04T17:00:01+01:00</time>
      </trkpt>
      <trkpt lat="44.08505" lon="0.77475">
        <ele>117.9</ele>
        <time>2022-01-04T17:00:12+01:00</time>
      </trkpt>
      <trkpt lat="44.08513" lon="0.77459">
        <ele>116.6</ele>
        <time>2022-01-04T17:00:22+01:00</time>
      </trkpt>
      <trkpt lat="44.08523" lon="0.77445">
        <ele>114.9</ele>
        <time>2022-01-04T17:00:32+01:00</time>
      </trkpt>
      <trkpt lat="44.08531" lon="0.7743">
        <ele>113.4</ele>
        <time>2022-01-04T17:00:42+01:00</time>
      </trkpt>
      <trkpt lat="44.0854" lon="0.77414">
        <ele>111.9</ele>
        <time>2022-01-04T17:00:51+01:00</time>
      </trkpt>
      <trkpt lat="44.08549" lon="0.774">
        <ele>111</ele>
        <time>2022-01-04T17:01:00+01:00</time>
      </trkpt>
      <trkpt lat="44.08557" lon="0.77384">
        <ele>109.8</ele>
        <time>2022-01-04T17:01:21+01:00</time>
      </trkpt>
      <trkpt lat="44.08567" lon="0.7737">
        <ele>109</ele>
        <time>2022-01-04T17:01:31+01:00</time>
      </trkpt>
      <trkpt lat="44.08575" lon="0.77353">
        <ele>108.6</ele>
        <time>2022-01-04T17:01:41+01:00</time>
      </trkpt>
      <trkpt lat="44.08584" lon="0.7734">
        <ele>108.7</ele>
        <time>2022-01-04T17:01:53+01:00</time>
      </trkpt>
      <trkpt lat="44.08588" lon="0.7732">
        <ele>109.2</ele>
        <time>2022-01-04T17:02:15+01:00</time>
      </trkpt>
      <trkpt lat="44.08587" lon="0.773">
        <ele>110.1</ele>
        <time>2022-01-04T17:02:41+01:00</time>
      </trkpt>
      <trkpt lat="44.08589" lon="0.77282">
        <ele>110.8</ele>
        <time>2022-01-04T17:02:51+01:00</time>
      </trkpt>
      <trkpt lat="44.0859" lon="0.77263">
        <ele>112.2</ele>
        <time>2022-01-04T17:03:00+01:00</time>
      </trkpt>
      <trkpt lat="44.08591" lon="0.77244">
        <ele>113.9</ele>
        <time>2022-01-04T17:03:10+01:00</time>
      </trkpt>
      <trkpt lat="44.08593" lon="0.77224">
        <ele>115.8</ele>
        <time>2022-01-04T17:03:21+01:00</time>
      </trkpt>
      <trkpt lat="44.08593" lon="0.77204">
        <ele>117.3</ele>
        <time>2022-01-04T17:03:32+01:00</time>
      </trkpt>
      <trkpt lat="44.08596" lon="0.77185">
        <ele>118.7</ele>
        <time>2022-01-04T17:03:43+01:00</time>
      </trkpt>
      <trkpt lat="44.08596" lon="0.77165">
        <ele>120.1</ele>
        <time>2022-01-04T17:03:58+01:00</time>
      </trkpt>
      <trkpt lat="44.08595" lon="0.77146">
        <ele>121.2</ele>
        <time>2022-01-04T17:04:10+01:00</time>
      </trkpt>
      <trkpt lat="44.08591" lon="0.77128">
        <ele>122.1</ele>
        <time>2022-01-04T17:04:25+01:00</time>
      </trkpt>
    </trkseg>
  </trk>
</gpx>